EFTP/TMP METAR and TAF weather

Enter ICAO airport designator
Station Type Date Time Source
EFTP METAR 2018/12/11 00:20 UTC NOAA

EFTP 110020Z AUTO 04007KT 9999 BKN006 OVC008 01/00 Q1008


Station Type Date Time Source
EFTP Decoded METAR 2018/12/11 00:20 UTC NOAA

Tampere / Pirkkala, Finland (EFTP) 61-25N 023-35E 112M
Dec 10, 2018 - 07:20 PM EST / 2018.12.11 0020 UTC
Wind: from the NE (040 degrees) at 8 MPH (7 KT):0
Visibility: greater than 7 mile(s):0
Sky conditions: overcast
Temperature: 33 F (1 C)
Windchill: 26 F (-3 C):1
Dew Point: 32 F (0 C)
Relative Humidity: 93%
Pressure (altimeter): 29.77 in. Hg (1008 hPa)
ob: EFTP 110020Z AUTO 04007KT 9999 BKN006 OVC008 01/00 Q1008
cycle: 0

Station Type Date Time Source
EFTP TAF 2018/12/10 21:44 UTC NOAA

TAF EFTP 102036Z 1021/1121 04007KT 9000 -SN SCT006 OVC010 PROB40
TEMPO 1021/1112 2500 BR BKN004


Example: see airport list